Time;durP1;ratioP1;P1;durP2;ratioP2;P2;SDS_P1;SDS_P2;PMS_P1;PMS_P2;Temp;Humidity;BMP_temperature;BMP_pressure;BME280_temperature;BME280_humidity;BME280_pressure;Samples;Min_cycle;Max_cycle;Signal;HPM_P1;HPM_P2
2022/01/29 00:00:54;;;;;;;25.80;10.00;;;3.20;99.90;;;3.22;60.36;99600.19;4996486;28;20040;-83
2022/01/29 00:03:22;;;;;;;27.35;10.23;;;3.10;99.90;;;3.18;59.61;99595.44;5013134;28;20120;-83
2022/01/29 00:05:49;;;;;;;28.15;9.65;;;3.10;99.90;;;3.14;59.88;99595.03;5026626;28;20095;-83
2022/01/29 00:08:16;;;;;;;22.60;9.02;;;3.10;99.90;;;3.13;59.72;99606.81;5012166;28;20066;-83
2022/01/29 00:10:44;;;;;;;37.47;10.13;;;3.10;99.90;;;3.06;59.26;99605.97;4997908;28;20127;-85
2022/01/29 00:13:10;;;;;;;22.30;7.80;;;3.00;99.90;;;2.97;59.81;99613.38;5010727;28;20051;-85
2022/01/29 00:15:36;;;;;;;18.30;8.07;;;3.00;99.90;;;2.92;59.56;99605.13;5012019;28;20775;-84
2022/01/29 00:18:02;;;;;;;17.95;8.32;;;2.90;99.90;;;2.86;59.72;99597.09;5015549;28;20076;-84
2022/01/29 00:20:28;;;;;;;23.27;7.38;;;2.90;99.90;;;2.85;59.93;99601.63;5030189;28;20037;-84
2022/01/29 00:22:54;;;;;;;18.20;7.97;;;2.80;99.90;;;2.82;59.33;99604.69;4993245;28;20080;-84
2022/01/29 00:25:20;;;;;;;18.08;7.35;;;2.80;99.90;;;2.84;59.50;99605.31;5000438;28;20115;-84
2022/01/29 00:27:46;;;;;;;19.45;7.57;;;2.80;99.90;;;2.76;59.18;99616.22;5028642;28;20148;-84
2022/01/29 00:30:18;;;;;;;19.02;7.88;;;2.80;99.90;;;2.76;59.41;99618.91;5012513;28;20150;-84
2022/01/29 00:32:44;;;;;;;16.23;6.57;;;2.70;99.90;;;2.60;59.54;99622.78;5018705;28;20041;-84
2022/01/29 00:35:10;;;;;;;21.63;7.75;;;2.50;99.90;;;2.44;60.52;99623.13;5033331;28;20041;-84
2022/01/29 00:37:36;;;;;;;21.20;7.78;;;2.50;99.90;;;2.34;60.65;99623.50;5012733;28;20118;-84
2022/01/29 00:40:03;;;;;;;15.38;7.47;;;2.40;99.90;;;2.27;60.58;99631.53;5015560;28;20052;-84
2022/01/29 00:42:29;;;;;;;18.73;7.05;;;2.30;99.90;;;2.13;60.61;99617.22;5014365;28;20036;-83
2022/01/29 00:44:55;;;;;;;22.33;6.90;;;2.20;99.90;;;2.00;60.70;99616.34;5034064;28;20044;-84
2022/01/29 00:47:21;;;;;;;17.15;7.68;;;2.00;99.90;;;1.92;61.24;99615.50;4997117;28;20398;-83
2022/01/29 00:49:47;;;;;;;17.60;6.75;;;1.90;99.90;;;1.88;61.10;99618.75;5030658;28;20068;-84
2022/01/29 00:52:13;;;;;;;23.73;7.80;;;1.90;99.90;;;1.80;60.77;99625.09;5031625;28;20044;-84
2022/01/29 00:54:39;;;;;;;15.85;6.97;;;1.80;99.90;;;1.75;60.92;99624.84;5029697;28;20045;-84
2022/01/29 00:57:05;;;;;;;18.10;7.30;;;1.70;99.90;;;1.65;60.44;99629.72;5032328;28;20043;-84
2022/01/29 00:59:33;;;;;;;12.77;6.70;;;1.70;99.90;;;1.62;61.29;99635.47;5015978;28;20052;-84
2022/01/29 01:02:00;;;;;;;15.93;7.63;;;1.60;99.90;;;1.59;60.91;99628.66;5031998;28;20045;-84
2022/01/29 01:04:26;;;;;;;17.90;7.78;;;1.50;99.90;;;1.53;61.28;99621.44;5017561;28;20229;-84
2022/01/29 01:06:52;;;;;;;24.42;7.43;;;1.40;99.90;;;1.42;61.70;99625.44;5016789;28;20041;-84
2022/01/29 01:09:18;;;;;;;11.95;6.35;;;1.40;99.90;;;1.33;61.84;99626.63;5015167;28;20065;-84
2022/01/29 01:11:44;;;;;;;27.45;8.48;;;1.30;99.90;;;1.29;61.86;99620.00;5018873;28;20077;-84
2022/01/29 01:14:10;;;;;;;15.55;5.90;;;1.20;99.90;;;1.22;62.09;99616.44;4998997;28;20054;-84
2022/01/29 01:16:36;;;;;;;21.80;7.18;;;1.20;99.90;;;1.16;61.57;99620.72;5016826;28;20484;-84
2022/01/29 01:19:02;;;;;;;22.55;7.63;;;1.20;99.90;;;1.12;62.17;99621.28;5018796;28;20120;-84
2022/01/29 01:21:28;;;;;;;26.33;7.90;;;1.10;99.90;;;1.03;62.10;99620.59;5002923;28;20041;-84
2022/01/29 01:23:55;;;;;;;25.13;8.20;;;1.00;99.90;;;1.01;62.11;99618.09;5020062;28;20568;-84
2022/01/29 01:26:21;;;;;;;19.13;6.68;;;1.00;99.90;;;0.96;62.29;99625.03;5023301;28;20056;-84
2022/01/29 01:28:47;;;;;;;17.35;6.32;;;1.00;99.90;;;0.94;62.27;99627.06;5006743;28;20081;-84
2022/01/29 01:31:13;;;;;;;19.30;6.47;;;1.00;99.90;;;0.94;62.24;99627.94;5004417;28;20048;-84
2022/01/29 01:33:39;;;;;;;16.23;5.68;;;0.90;99.90;;;0.98;61.77;99626.50;5018601;28;20131;-84
2022/01/29 01:36:07;;;;;;;19.50;6.18;;;1.00;99.90;;;0.94;61.60;99611.91;5000299;28;20075;-84
2022/01/29 01:38:43;;;;;;;11.85;5.50;;;0.90;99.90;;;0.94;62.27;99621.72;5001238;28;20094;-84
2022/01/29 01:41:16;;;;;;;14.80;6.60;;;0.90;99.90;;;0.95;62.32;99618.88;5002781;28;20437;-84
2022/01/29 01:43:42;;;;;;;13.88;6.35;;;0.90;99.90;;;0.95;62.11;99605.53;5032748;28;20401;-84
2022/01/29 01:46:08;;;;;;;19.60;6.22;;;0.90;99.90;;;0.94;61.79;99611.91;5022337;28;20041;-84
2022/01/29 01:48:34;;;;;;;15.18;7.28;;;0.90;99.90;;;0.93;61.96;99604.88;4998699;28;20048;-84
2022/01/29 01:51:06;;;;;;;15.57;7.57;;;0.90;99.90;;;0.90;61.88;99607.13;5034707;28;20045;-84
2022/01/29 01:53:32;;;;;;;15.65;7.53;;;0.90;99.90;;;0.86;61.83;99602.13;5018745;28;20378;-84
2022/01/29 01:55:59;;;;;;;26.05;8.07;;;0.90;99.90;;;0.82;62.00;99606.22;5030098;28;20141;-84
2022/01/29 01:58:25;;;;;;;21.88;7.57;;;0.90;99.90;;;0.81;62.55;99601.06;5015361;28;20052;-83
2022/01/29 02:00:51;;;;;;;16.85;6.85;;;0.90;99.90;;;0.76;63.03;99603.47;5018083;28;20116;-84
2022/01/29 02:03:18;;;;;;;19.55;8.18;;;0.80;99.90;;;0.68;63.65;99611.63;5036899;28;20041;-84
2022/01/29 02:05:45;;;;;;;20.90;8.82;;;0.70;99.90;;;0.63;64.10;99607.66;5018790;28;20096;-84
2022/01/29 02:08:12;;;;;;;15.90;6.90;;;0.70;99.90;;;0.52;64.56;99610.84;5004926;28;20048;-84
2022/01/29 02:10:38;;;;;;;21.92;8.15;;;0.50;99.90;;;0.45;64.89;99601.94;5018815;28;20109;-84
2022/01/29 02:13:05;;;;;;;25.02;9.40;;;0.50;99.90;;;0.41;64.72;99606.81;5018152;28;20068;-84
2022/01/29 02:15:31;;;;;;;19.08;8.95;;;0.40;99.90;;;0.39;64.59;99594.69;5022272;28;20471;-84
2022/01/29 02:17:58;;;;;;;16.70;7.28;;;0.40;99.90;;;0.45;64.37;99601.09;5007726;28;20033;-83
2022/01/29 02:20:28;;;;;;;20.58;8.75;;;0.40;99.90;;;0.51;63.92;99606.53;5051958;28;20163;-83
2022/01/29 02:22:54;;;;;;;19.20;8.60;;;0.50;99.90;;;0.53;63.81;99591.13;5022835;28;20059;-83
2022/01/29 02:25:44;;;;;;;20.98;7.30;;;0.60;99.90;;;0.61;64.14;99593.69;5003698;28;20079;-83
2022/01/29 02:28:19;;;;;;;18.10;8.40;;;0.60;99.90;;;0.63;63.63;99605.00;5022225;28;20138;-83
2022/01/29 02:30:56;;;;;;;19.35;7.45;;;0.60;99.90;;;0.69;63.43;99610.59;5021473;28;20041;-83
2022/01/29 02:33:23;;;;;;;20.13;8.10;;;0.70;99.90;;;0.67;63.33;99608.13;5019777;28;20041;-83
2022/01/29 02:35:50;;;;;;;18.73;6.55;;;0.70;99.90;;;0.72;63.66;99603.03;5032926;28;20132;-84
2022/01/29 02:38:20;;;;;;;18.40;6.95;;;0.70;99.90;;;0.80;63.39;99604.75;5039855;28;20572;-83
2022/01/29 02:40:49;;;;;;;19.80;7.43;;;0.80;99.90;;;0.77;63.55;99610.50;5022534;28;20443;-83
2022/01/29 02:43:49;;;;;;;23.63;8.35;;;0.70;99.90;;;0.77;63.08;99599.81;5018850;28;20097;-83
2022/01/29 02:48:52;;;;;;;21.10;7.55;;;0.80;99.90;;;0.91;63.02;99593.56;5022661;28;20108;-83
2022/01/29 02:51:19;;;;;;;20.30;8.98;;;0.90;99.90;;;0.88;62.70;99588.59;5021487;28;20037;-83
2022/01/29 02:53:44;;;;;;;15.70;7.53;;;0.80;99.90;;;0.85;62.71;99592.47;5029984;28;20059;-83
2022/01/29 02:56:11;;;;;;;16.15;7.00;;;0.80;99.90;;;0.88;62.22;99593.13;5023111;28;20175;-83
2022/01/29 02:58:37;;;;;;;25.10;8.63;;;0.80;99.90;;;0.83;62.42;99604.38;5036383;28;20430;-83
2022/01/29 03:01:04;;;;;;;31.88;8.90;;;0.80;99.90;;;0.81;61.99;99604.56;5025069;28;20468;-83
2022/01/29 03:03:30;;;;;;;28.45;9.50;;;0.80;99.90;;;0.77;61.81;99599.81;5060738;28;20047;-83
2022/01/29 03:05:56;;;;;;;22.02;8.30;;;0.70;99.90;;;0.75;62.16;99594.66;5007253;28;20045;-83
2022/01/29 03:08:22;;;;;;;15.73;8.32;;;0.70;99.90;;;0.68;62.39;99596.41;5022455;28;20150;-83
2022/01/29 03:10:48;;;;;;;14.85;8.13;;;0.70;99.90;;;0.65;62.34;99596.81;5036394;28;20119;-84
2022/01/29 03:13:14;;;;;;;22.52;8.65;;;0.60;99.90;;;0.68;62.06;99592.94;5018712;28;20040;-83
2022/01/29 03:15:40;;;;;;;23.95;8.00;;;0.60;99.90;;;0.63;62.28;99593.50;5016314;28;20052;-84
2022/01/29 03:18:06;;;;;;;19.02;7.65;;;0.60;99.90;;;0.56;62.29;99598.78;5019413;28;20083;-84
2022/01/29 03:20:32;;;;;;;18.75;8.15;;;0.60;99.90;;;0.54;62.40;99603.47;5024599;28;20116;-83
2022/01/29 03:22:58;;;;;;;20.75;7.53;;;0.50;99.90;;;0.52;62.24;99608.16;5020557;28;20075;-83
2022/01/29 03:25:25;;;;;;;23.58;9.23;;;0.50;99.90;;;0.44;62.65;99602.97;5034817;28;20556;-84
2022/01/29 03:27:51;;;;;;;18.05;8.27;;;0.50;99.90;;;0.36;63.13;99593.22;5037625;28;20190;-84
2022/01/29 03:30:17;;;;;;;19.55;7.07;;;0.40;99.90;;;0.40;62.84;99582.97;5018546;28;20481;-83
2022/01/29 03:32:43;;;;;;;18.13;8.10;;;0.40;99.90;;;0.40;62.82;99583.81;5004532;28;20152;-83
2022/01/29 03:35:10;;;;;;;21.77;8.82;;;0.30;99.90;;;0.31;63.23;99595.63;5031392;28;20064;-83
2022/01/29 03:37:36;;;;;;;19.33;8.30;;;0.40;99.90;;;0.20;63.44;99588.94;5000504;28;20045;-83
2022/01/29 03:40:05;;;;;;;20.92;8.02;;;0.20;99.90;;;0.15;63.24;99591.34;5035084;28;20116;-83
2022/01/29 03:42:35;;;;;;;29.17;9.80;;;0.20;99.90;;;0.06;63.30;99584.44;5019372;28;20033;-83
2022/01/29 03:45:02;;;;;;;19.63;10.03;;;0.10;99.90;;;0.01;63.29;99586.03;5031806;28;20412;-83
2022/01/29 03:47:28;;;;;;;16.58;9.88;;;0.10;99.90;;;-0.05;63.46;99575.09;5016514;28;20284;-83
2022/01/29 03:49:54;;;;;;;24.48;9.95;;;0.00;99.90;;;-0.11;63.70;99580.31;5003309;28;20044;-83
2022/01/29 03:52:20;;;;;;;22.25;12.30;;;-0.10;99.90;;;-0.16;63.87;99580.88;5004567;28;20045;-83
2022/01/29 03:54:46;;;;;;;30.65;12.65;;;-0.20;99.90;;;-0.24;64.20;99589.78;5019405;28;20151;-83
2022/01/29 03:57:12;;;;;;;28.80;12.20;;;-0.20;99.90;;;-0.29;64.28;99584.19;5023039;28;20041;-83
2022/01/29 03:59:38;;;;;;;27.10;12.45;;;-0.20;99.90;;;-0.32;64.68;99581.88;5036487;28;20044;-83
2022/01/29 04:02:04;;;;;;;33.00;14.05;;;-0.20;99.90;;;-0.34;64.65;99575.09;5004594;28;20119;-83
2022/01/29 04:04:30;;;;;;;29.90;14.07;;;-0.30;99.90;;;-0.36;64.48;99585.09;5002864;28;20386;-83
2022/01/29 04:06:59;;;;;;;31.73;14.65;;;-0.30;99.90;;;-0.39;64.02;99583.63;5017407;28;20122;-83
2022/01/29 04:09:27;;;;;;;30.35;16.05;;;-0.30;99.90;;;-0.40;64.91;99589.16;5018069;28;20033;-83
2022/01/29 04:11:53;;;;;;;35.42;15.43;;;-0.30;99.90;;;-0.44;65.03;99586.03;5001319;28;20111;-83
2022/01/29 04:14:20;;;;;;;28.23;15.80;;;-0.40;99.90;;;-0.43;65.06;99587.69;5017702;28;20404;-83
2022/01/29 04:16:47;;;;;;;32.30;15.63;;;-0.40;99.90;;;-0.44;64.96;99586.84;5000668;28;20094;-83
2022/01/29 04:19:13;;;;;;;39.88;16.65;;;-0.40;99.90;;;-0.45;64.93;99587.03;5029844;28;20056;-83
2022/01/29 04:21:41;;;;;;;34.17;16.83;;;-0.40;99.90;;;-0.47;65.18;99586.38;5015658;28;20102;-82
2022/01/29 04:24:07;;;;;;;35.15;15.32;;;-0.40;99.90;;;-0.51;64.95;99585.09;5003270;28;20084;-83
2022/01/29 04:26:35;;;;;;;29.75;16.13;;;-0.40;99.90;;;-0.44;65.20;99581.50;5003821;28;20041;-83
2022/01/29 04:29:07;;;;;;;28.25;14.60;;;-0.50;99.90;;;-0.45;65.35;99589.72;5003442;28;20032;-83
2022/01/29 04:31:42;;;;;;;36.50;16.50;;;-0.50;99.90;;;-0.49;65.38;99589.22;5016744;28;20082;-83
2022/01/29 04:34:08;;;;;;;34.05;15.82;;;-0.50;99.90;;;-0.54;65.37;99574.81;5034137;28;20041;-83
2022/01/29 04:36:34;;;;;;;35.55;15.90;;;-0.40;99.90;;;-0.58;66.22;99576.19;5039588;28;20602;-83
2022/01/29 04:39:00;;;;;;;32.72;16.02;;;-0.50;99.90;;;-0.53;65.57;99568.47;5023741;28;20045;-83
2022/01/29 04:41:26;;;;;;;36.95;14.57;;;-0.50;99.90;;;-0.58;65.83;99568.19;5021396;28;21966;-83
2022/01/29 04:43:52;;;;;;;26.80;15.93;;;-0.60;99.90;;;-0.63;65.97;99575.91;5018122;28;20047;-83
2022/01/29 04:46:18;;;;;;;31.92;15.68;;;-0.60;99.90;;;-0.67;66.09;99576.25;5022374;28;20492;-83
2022/01/29 04:48:44;;;;;;;37.95;17.75;;;-0.60;99.90;;;-0.71;66.12;99564.31;5035692;28;20078;-84
2022/01/29 04:51:10;;;;;;;35.55;17.40;;;-0.70;99.90;;;-0.77;66.63;99569.53;5017498;28;20095;-83
2022/01/29 04:53:36;;;;;;;37.58;17.27;;;-0.70;99.90;;;-0.84;66.55;99569.44;5036673;28;20124;-83
2022/01/29 04:56:02;;;;;;;51.67;17.90;;;-0.70;99.90;;;-0.91;67.47;99563.19;5013739;28;20029;-83
2022/01/29 04:58:28;;;;;;;36.92;17.08;;;-0.80;99.90;;;-0.98;67.32;99557.75;5031897;28;20120;-83
2022/01/29 05:00:54;;;;;;;38.13;17.02;;;-0.90;99.90;;;-1.01;67.10;99559.94;5021348;28;20396;-83
2022/01/29 05:03:20;;;;;;;36.45;16.48;;;-1.00;99.90;;;-1.03;66.85;99553.97;5002206;28;20064;-83
2022/01/29 05:05:46;;;;;;;42.58;16.38;;;-1.00;99.90;;;-1.12;67.26;99551.38;5001919;28;20468;-83
2022/01/29 05:08:12;;;;;;;42.45;17.95;;;-1.10;99.90;;;-1.16;67.67;99544.75;5046441;28;20107;-82
2022/01/29 05:10:38;;;;;;;45.47;18.13;;;-1.10;99.90;;;-1.20;67.25;99546.09;5018589;28;20120;-82
2022/01/29 05:13:08;;;;;;;42.05;16.83;;;-1.20;99.90;;;-1.23;67.45;99538.50;5015628;28;20258;-83
2022/01/29 05:29:05;;;;;;;48.63;20.90;;;-1.60;99.90;;;-1.77;67.95;99544.69;5024917;28;20498;-82
2022/01/29 05:31:31;;;;;;;54.97;23.58;;;-1.70;99.90;;;-1.79;68.30;99545.88;5014115;28;20060;-82
2022/01/29 05:33:57;;;;;;;60.55;28.42;;;-1.70;99.90;;;-1.73;68.55;99537.22;5039677;28;20116;-81
2022/01/29 05:36:24;;;;;;;53.95;26.02;;;-1.80;99.90;;;-1.62;68.33;99547.44;5007916;28;20159;-81
2022/01/29 05:38:49;;;;;;;58.00;29.30;;;-1.60;99.90;;;-1.52;68.51;99546.38;5009593;28;20156;-81
2022/01/29 05:41:15;;;;;;;51.67;29.35;;;-1.60;99.90;;;-1.44;68.76;99538.34;5029589;28;20041;-81
2022/01/29 05:43:44;;;;;;;56.25;29.85;;;-1.50;99.90;;;-1.46;68.65;99538.50;5046816;28;20080;-81
2022/01/29 05:46:11;;;;;;;61.53;31.05;;;-1.50;99.90;;;-1.43;68.49;99539.97;5030418;28;20120;-80
2022/01/29 05:48:38;;;;;;;70.95;33.50;;;-1.40;99.90;;;-1.44;68.69;99546.31;5046438;28;20044;-81
2022/01/29 05:51:04;;;;;;;68.75;32.83;;;-1.40;99.90;;;-1.52;68.24;99541.88;5043791;28;20116;-81
2022/01/29 05:53:30;;;;;;;65.78;32.15;;;-1.40;99.90;;;-1.62;68.53;99533.31;5016587;28;20037;-81
2022/01/29 05:55:56;;;;;;;70.43;32.55;;;-1.40;99.90;;;-1.74;68.72;99535.53;5033664;28;22123;-81
2022/01/29 05:58:22;;;;;;;65.55;35.33;;;-1.50;99.90;;;-1.81;68.85;99531.91;5044918;28;20101;-80
2022/01/29 06:00:48;;;;;;;73.55;37.55;;;-1.60;99.90;;;-1.78;68.74;99532.41;5027270;28;20079;-81
2022/01/29 06:03:14;;;;;;;90.93;43.08;;;-1.60;99.90;;;-1.78;68.90;99523.59;5012773;28;20051;-81
2022/01/29 06:05:40;;;;;;;86.07;39.70;;;-1.60;99.90;;;-1.79;69.53;99528.09;5028117;28;20386;-80
2022/01/29 06:08:06;;;;;;;90.53;40.75;;;-1.60;99.90;;;-1.79;69.60;99525.41;5000580;28;20052;-80
2022/01/29 06:10:32;;;;;;;90.22;40.53;;;-1.60;99.90;;;-1.75;69.75;99531.22;5019931;28;20088;-80
2022/01/29 06:13:03;;;;;;;83.18;40.90;;;-1.60;99.90;;;-1.63;70.26;99532.50;5040384;28;20037;-80
2022/01/29 06:15:31;;;;;;;83.97;40.63;;;-1.60;99.90;;;-1.54;70.32;99534.06;5041789;28;20045;-80
2022/01/29 06:17:58;;;;;;;88.43;41.53;;;-1.50;99.90;;;-1.49;70.06;99543.38;5026573;28;20416;-82
2022/01/29 06:20:25;;;;;;;85.35;43.10;;;-1.40;99.90;;;-1.32;70.11;99539.56;5038394;28;20136;-81
2022/01/29 06:22:51;;;;;;;78.20;41.42;;;-1.30;99.90;;;-1.13;70.19;99543.56;5019710;28;20411;-82
2022/01/29 06:25:17;;;;;;;83.65;40.95;;;-1.10;99.90;;;-0.95;70.28;99545.91;5037125;28;20485;-81
2022/01/29 06:27:43;;;;;;;81.05;39.13;;;-0.90;99.90;;;-0.77;69.55;99537.56;5020137;28;20131;-81
2022/01/29 06:30:10;;;;;;;77.90;37.38;;;-0.70;99.90;;;-0.60;69.56;99536.41;5018617;28;20076;-81
2022/01/29 06:32:35;;;;;;;74.65;36.78;;;-0.50;99.90;;;-0.44;69.14;99527.38;5038074;28;20045;-81
2022/01/29 06:35:02;;;;;;;67.40;35.15;;;-0.40;99.90;;;-0.36;68.95;99519.28;5015656;28;20061;-82
2022/01/29 06:37:28;;;;;;;68.80;31.58;;;-0.20;99.90;;;-0.22;68.45;99520.28;5037221;28;20040;-82
2022/01/29 06:39:54;;;;;;;55.75;29.60;;;-0.20;99.90;;;-0.14;67.64;99509.50;5036276;28;20125;-81
2022/01/29 06:42:20;;;;;;;63.80;30.58;;;-0.10;99.90;;;-0.07;67.70;99497.09;5001911;28;20076;-82
2022/01/29 06:44:46;;;;;;;60.22;27.77;;;0.00;99.90;;;0.00;67.26;99486.50;5034239;28;20064;-82
2022/01/29 06:47:11;;;;;;;58.78;28.02;;;0.10;99.90;;;0.05;66.72;99494.78;5033896;28;20076;-81
2022/01/29 06:49:38;;;;;;;45.15;25.92;;;0.10;99.90;;;0.09;66.43;99496.03;5037821;28;20123;-81
2022/01/29 06:52:04;;;;;;;53.38;26.50;;;0.20;99.90;;;0.12;66.29;99484.97;5004028;28;20060;-81
2022/01/29 06:54:30;;;;;;;48.17;26.10;;;0.20;99.90;;;0.13;66.04;99489.31;5018731;28;20480;-81
2022/01/29 06:56:56;;;;;;;49.67;25.23;;;0.20;99.90;;;0.13;66.12;99483.97;5052435;28;20037;-82
2022/01/29 06:59:22;;;;;;;64.63;28.95;;;0.30;99.90;;;0.14;66.10;99488.28;5006862;28;20128;-82
2022/01/29 07:01:48;;;;;;;57.13;25.80;;;0.30;99.90;;;0.17;65.75;99479.91;5034164;28;20479;-82
2022/01/29 07:04:14;;;;;;;64.75;25.80;;;0.30;99.90;;;0.16;65.44;99474.78;5029892;28;20097;-82
2022/01/29 07:06:40;;;;;;;55.33;25.75;;;0.30;99.90;;;0.14;65.67;99479.47;5025725;28;20071;-81
2022/01/29 07:09:06;;;;;;;53.95;24.75;;;0.30;99.90;;;0.09;65.47;99485.34;5045607;28;20045;-81
2022/01/29 07:11:32;;;;;;;66.47;29.23;;;0.20;99.90;;;-0.01;66.19;99480.31;5016311;28;20139;-81
2022/01/29 07:14:02;;;;;;;62.20;27.27;;;0.20;99.90;;;-0.09;65.90;99480.44;5032459;28;20496;-82
2022/01/29 07:16:30;;;;;;;71.43;29.40;;;0.10;99.90;;;-0.18;66.03;99486.06;5036876;28;20049;-81
2022/01/29 07:18:56;;;;;;;60.05;28.55;;;0.00;99.90;;;-0.26;66.41;99482.50;5034348;28;20342;-81
2022/01/29 07:21:22;;;;;;;47.38;24.40;;;-0.10;99.90;;;-0.21;66.07;99468.59;5017207;28;20116;-81
2022/01/29 07:23:48;;;;;;;49.80;25.65;;;-0.10;99.90;;;-0.20;66.07;99461.44;5003610;28;20119;-81
2022/01/29 07:26:14;;;;;;;56.63;24.05;;;-0.10;99.90;;;-0.28;66.20;99473.88;5017190;28;20136;-81
2022/01/29 07:28:40;;;;;;;49.25;22.42;;;-0.10;99.90;;;-0.26;66.48;99481.66;5016283;28;20048;-81
2022/01/29 07:31:06;;;;;;;45.85;23.40;;;-0.20;99.90;;;-0.26;66.67;99463.00;5017693;28;20516;-81
2022/01/29 07:33:33;;;;;;;45.78;25.58;;;-0.10;99.90;;;-0.16;66.81;99460.03;5019658;28;20135;-81
2022/01/29 07:35:59;;;;;;;60.70;27.42;;;-0.10;99.90;;;-0.14;66.48;99458.03;5004308;28;20061;-81
2022/01/29 07:38:25;;;;;;;57.08;27.33;;;0.00;99.90;;;-0.06;66.22;99457.91;5050256;28;20067;-82
2022/01/29 07:40:51;;;;;;;59.20;27.27;;;0.00;99.90;;;0.02;66.23;99463.13;5003597;28;20037;-81
2022/01/29 07:43:17;;;;;;;63.53;26.80;;;0.10;99.90;;;0.02;65.99;99457.78;5007938;28;20053;-81
2022/01/29 07:45:43;;;;;;;46.85;24.02;;;0.20;99.90;;;0.12;66.15;99458.28;5019149;28;20071;-81
2022/01/29 07:48:11;;;;;;;52.10;24.55;;;0.20;99.90;;;0.30;66.09;99467.72;5027549;28;20468;-82
2022/01/29 07:50:37;;;;;;;59.25;23.75;;;0.40;99.90;;;0.63;65.29;99460.81;5014607;28;20095;-82
2022/01/29 07:53:03;;;;;;;49.20;23.35;;;0.60;99.90;;;0.91;64.06;99457.31;5037958;28;20041;-81
2022/01/29 07:55:30;;;;;;;47.80;21.08;;;0.90;99.90;;;1.06;63.09;99455.38;5046084;28;20056;-82
2022/01/29 07:57:59;;;;;;;49.10;21.67;;;1.20;99.90;;;1.20;62.81;99450.13;5055768;28;20032;-82
2022/01/29 08:00:25;;;;;;;50.88;22.15;;;1.30;99.90;;;1.33;63.85;99436.00;5022372;28;20053;-82
2022/01/29 08:02:51;;;;;;;45.92;22.35;;;1.50;99.90;;;1.44;62.27;99428.22;5036262;28;20076;-81
2022/01/29 08:05:17;;;;;;;39.20;19.50;;;1.60;99.90;;;1.41;61.44;99425.97;5049917;28;20056;-81
2022/01/29 08:07:43;;;;;;;43.63;19.15;;;1.60;99.90;;;1.40;61.02;99418.97;5047747;28;20056;-81
2022/01/29 08:10:13;;;;;;;48.33;18.40;;;1.60;99.90;;;1.37;60.79;99427.38;5031610;28;20063;-81
2022/01/29 08:12:38;;;;;;;37.78;17.85;;;1.50;99.90;;;1.28;61.13;99423.25;5031388;28;20033;-81
2022/01/29 08:15:05;;;;;;;40.83;17.55;;;1.50;99.90;;;1.24;60.99;99412.09;5033908;28;20095;-81
2022/01/29 08:17:31;;;;;;;51.75;20.48;;;1.40;99.90;;;1.31;60.86;99414.81;5033366;28;20045;-82
2022/01/29 08:19:57;;;;;;;40.45;18.88;;;1.40;99.90;;;1.33;60.79;99415.44;5040343;28;20071;-82
2022/01/29 08:22:24;;;;;;;38.90;17.85;;;1.40;99.90;;;1.46;60.17;99412.00;5046323;28;20056;-81
2022/01/29 08:24:52;;;;;;;46.83;18.67;;;1.50;99.90;;;1.52;60.31;99409.34;5026836;28;20037;-81
2022/01/29 08:27:21;;;;;;;35.88;16.70;;;1.50;99.90;;;1.64;59.89;99406.94;5044495;28;20049;-81
2022/01/29 08:29:47;;;;;;;45.15;17.00;;;1.60;99.90;;;1.72;59.57;99405.91;5045365;28;20357;-81
2022/01/29 08:32:13;;;;;;;52.45;16.98;;;1.70;99.90;;;1.71;59.44;99402.44;5023668;28;20446;-81
2022/01/29 08:34:40;;;;;;;38.35;15.40;;;1.80;99.90;;;1.79;59.94;99395.25;5030596;28;20033;-81
2022/01/29 08:37:07;;;;;;;34.35;14.75;;;1.90;99.90;;;1.87;59.59;99398.56;5048515;28;20048;-81
2022/01/29 08:39:34;;;;;;;38.22;15.18;;;1.90;99.90;;;2.00;59.70;99391.59;5006488;28;20109;-82
2022/01/29 08:42:01;;;;;;;31.08;13.18;;;2.00;99.90;;;2.15;59.18;99393.03;5023017;28;20385;-82
2022/01/29 08:44:28;;;;;;;28.45;10.75;;;2.20;99.90;;;2.32;58.46;99382.75;5003076;28;20496;-81
2022/01/29 08:46:57;;;;;;;23.02;8.27;;;2.30;99.90;;;2.57;56.83;99371.41;5020671;28;20144;-82
2022/01/29 08:49:25;;;;;;;20.50;9.07;;;2.50;99.90;;;2.77;56.59;99369.56;5019548;28;20072;-82
2022/01/29 08:51:53;;;;;;;17.85;7.65;;;2.70;99.90;;;2.91;55.20;99366.84;5021173;28;20086;-82
2022/01/29 08:54:20;;;;;;;22.13;8.40;;;2.90;99.90;;;2.97;54.03;99366.81;5016902;28;20458;-82
2022/01/29 08:56:47;;;;;;;17.83;7.55;;;3.00;99.90;;;3.21;54.30;99361.81;5027944;28;20045;-82
2022/01/29 08:59:13;;;;;;;22.38;8.90;;;3.20;99.90;;;3.41;54.02;99372.44;5031049;28;20067;-82
2022/01/29 09:01:41;;;;;;;27.75;10.57;;;3.40;99.90;;;3.58;54.10;99370.09;5003960;28;20094;-83
2022/01/29 09:04:08;;;;;;;26.02;7.85;;;3.50;99.90;;;3.69;54.13;99369.44;5001570;28;20048;-83
2022/01/29 09:06:37;;;;;;;20.48;8.18;;;3.70;99.90;;;3.80;52.69;99363.38;5024260;28;20853;-83
2022/01/29 09:09:04;;;;;;;20.75;7.72;;;3.90;99.90;;;3.89;51.54;99362.09;5015834;28;20084;-83
2022/01/29 09:11:30;;;;;;;29.85;9.52;;;4.00;99.90;;;4.03;51.49;99353.94;5050253;28;20036;-83
2022/01/29 09:13:56;;;;;;;25.40;8.93;;;4.10;99.90;;;4.16;51.86;99344.97;5033873;28;20333;-84
2022/01/29 09:16:22;;;;;;;19.02;7.63;;;4.20;99.90;;;4.21;50.46;99350.50;5011696;28;20045;-83
2022/01/29 09:18:49;;;;;;;24.40;8.52;;;4.30;99.90;;;4.30;51.28;99350.00;5010731;28;20055;-84
2022/01/29 09:21:15;;;;;;;27.02;8.88;;;4.30;99.90;;;4.41;50.58;99350.34;5004639;28;20048;-84
2022/01/29 09:23:42;;;;;;;31.42;9.23;;;4.50;99.90;;;4.54;50.13;99345.66;5021426;28;20123;-83
2022/01/29 09:26:08;;;;;;;23.23;8.07;;;4.50;99.90;;;4.68;50.45;99342.84;5030582;28;20043;-84
2022/01/29 09:28:34;;;;;;;32.28;8.40;;;4.70;99.90;;;4.71;48.58;99340.53;5021429;28;20792;-83
2022/01/29 09:31:00;;;;;;;23.10;10.20;;;4.80;99.90;;;4.78;49.49;99340.47;5019163;28;20685;-82
2022/01/29 09:33:25;;;;;;;25.17;9.63;;;4.90;99.90;;;4.79;49.27;99337.56;5019267;28;20044;-83
2022/01/29 09:35:51;;;;;;;23.50;9.40;;;4.90;99.90;;;4.81;49.81;99320.38;5016705;28;20039;-83
2022/01/29 09:38:17;;;;;;;23.88;8.35;;;4.90;99.90;;;4.93;49.43;99321.28;5034462;28;20041;-83
2022/01/29 09:40:44;;;;;;;36.45;9.32;;;5.00;99.90;;;5.03;48.99;99324.25;5039106;28;20443;-84
2022/01/29 09:43:10;;;;;;;37.08;10.43;;;5.10;99.90;;;5.15;49.84;99321.66;5017202;28;20037;-82
2022/01/29 09:45:37;;;;;;;25.80;10.55;;;5.20;99.90;;;5.20;49.00;99311.03;5014816;28;20049;-83
2022/01/29 09:48:04;;;;;;;31.52;10.93;;;5.20;99.90;;;5.30;49.54;99316.72;5020885;28;20052;-83
2022/01/29 09:50:35;;;;;;;27.90;10.40;;;5.30;99.90;;;5.44;48.79;99303.88;5001263;28;20041;-83
2022/01/29 09:53:02;;;;;;;34.90;11.05;;;5.50;99.90;;;5.67;48.95;99305.84;5031309;28;20485;-83
2022/01/29 09:55:29;;;;;;;28.35;11.00;;;5.70;99.90;;;5.94;48.24;99300.13;5003117;28;20116;-83
2022/01/29 09:57:55;;;;;;;27.65;11.15;;;6.00;99.90;;;6.02;46.92;99284.44;5030478;28;20061;-83
2022/01/29 10:00:22;;;;;;;25.77;10.30;;;6.20;99.90;;;6.04;46.57;99287.72;5028663;28;20087;-82
2022/01/29 10:03:19;;;;;;;25.67;9.23;;;6.20;99.20;;;6.15;46.69;99271.78;5013261;28;20037;-82
2022/01/29 10:05:49;;;;;;;27.48;7.97;;;6.30;98.80;;;6.16;45.99;99266.19;5051150;28;20056;-82
2022/01/29 10:08:15;;;;;;;24.02;8.90;;;6.40;98.10;;;6.21;47.00;99249.34;5019851;28;20120;-82
2022/01/29 10:10:59;;;;;;;24.42;9.27;;;6.40;98.30;;;6.25;46.60;99266.66;5013525;28;20563;-82
2022/01/29 10:13:35;;;;;;;23.92;7.82;;;6.40;97.90;;;6.24;45.73;99255.06;5023759;28;20041;-83
2022/01/29 10:16:25;;;;;;;21.30;8.50;;;6.40;97.60;;;6.32;46.05;99267.34;5036659;28;20037;-82
2022/01/29 10:19:03;;;;;;;27.00;9.55;;;6.50;97.50;;;6.51;45.44;99251.88;5020200;28;20128;-83
2022/01/29 10:21:45;;;;;;;18.15;7.93;;;6.60;96.90;;;6.71;44.63;99254.19;5035118;28;20041;-82
2022/01/29 10:24:17;;;;;;;35.70;9.10;;;6.80;96.50;;;6.94;44.96;99237.94;5030964;28;20093;-82
2022/01/29 10:26:47;;;;;;;;;;;7.10;96.80;;;6.99;45.50;99242.63;5014247;28;20053;-82
2022/01/29 10:29:21;;;;;;;24.08;7.95;;;7.20;96.80;;;7.11;44.08;99239.91;5025974;28;20590;-82
2022/01/29 10:31:57;;;;;;;22.58;8.00;;;7.40;95.50;;;7.25;44.02;99230.47;5018707;28;20080;-82
2022/01/29 10:34:29;;;;;;;19.52;8.10;;;7.60;95.00;;;7.41;43.60;99231.56;5020388;28;20138;-81